Time;durP1;ratioP1;P1;durP2;ratioP2;P2;SDS_P1;SDS_P2;PMS_P1;PMS_P2;Temp;Humidity;BMP_temperature;BMP_pressure;BME280_temperature;BME280_humidity;BME280_pressure;Samples;Min_cycle;Max_cycle;Signal;HPM_P1;HPM_P2
2024/03/18 00:00:59;;;;;;;11.60;4.80;;;;;;;5.02;96.75;99564.64;106360;1257;71376;-77
2024/03/18 00:03:27;;;;;;;9.50;4.00;;;;;;;5.05;96.28;99565.26;105825;1259;61764;-76
2024/03/18 00:05:55;;;;;;;11.90;4.60;;;;;;;5.06;95.60;99568.33;105595;1261;60388;-76
2024/03/18 00:08:22;;;;;;;14.50;4.30;;;;;;;5.04;95.71;99570.79;105593;1254;71672;-74
2024/03/18 00:10:50;;;;;;;10.00;3.90;;;;;;;5.03;95.50;99570.55;105822;1254;68805;-74
2024/03/18 00:13:17;;;;;;;12.50;4.00;;;;;;;4.99;94.89;99568.77;105674;1257;71075;-77
2024/03/18 00:15:44;;;;;;;12.00;3.60;;;;;;;4.98;94.60;99566.08;105731;1256;60571;-75
2024/03/18 00:18:12;;;;;;;9.50;3.50;;;;;;;5.01;95.22;99565.37;106266;1260;59226;-75
2024/03/18 00:20:39;;;;;;;6.70;3.10;;;;;;;5.09;95.54;99562.91;105666;1255;73792;-78
2024/03/18 00:23:07;;;;;;;8.30;3.40;;;;;;;5.06;94.09;99567.41;105708;1260;68777;-76
2024/03/18 00:25:34;;;;;;;7.50;3.80;;;;;;;4.96;93.77;99564.58;105857;1255;72728;-74
2024/03/18 00:28:02;;;;;;;7.50;3.40;;;;;;;4.94;94.36;99563.39;105595;1256;60348;-78
2024/03/18 00:30:29;;;;;;;8.00;3.30;;;;;;;4.92;94.07;99567.02;106706;1256;60307;-77
2024/03/18 00:32:57;;;;;;;6.80;3.00;;;;;;;4.91;93.79;99567.67;106878;1256;74083;-75
2024/03/18 00:35:25;;;;;;;10.10;3.30;;;;;;;4.87;93.50;99570.88;105974;1253;70121;-76
2024/03/18 00:37:52;;;;;;;5.20;2.80;;;;;;;4.78;93.13;99570.42;105835;1259;71738;-79
2024/03/18 00:40:19;;;;;;;7.00;3.10;;;;;;;4.75;93.35;99569.11;105954;1253;61984;-76
2024/03/18 00:42:47;;;;;;;6.50;3.30;;;;;;;4.69;93.40;99570.01;105892;1258;60474;-76
2024/03/18 00:45:16;;;;;;;8.50;2.90;;;;;;;4.67;93.56;99566.84;105704;1254;72753;-76
2024/03/18 00:47:43;;;;;;;6.50;2.80;;;;;;;4.65;93.72;99562.42;105957;1257;70101;-76
2024/03/18 00:50:11;;;;;;;5.90;2.60;;;;;;;4.67;94.42;99560.19;105862;1254;72514;-74
2024/03/18 00:52:38;;;;;;;4.70;2.60;;;;;;;4.70;95.52;99563.52;105859;1254;60550;-77
2024/03/18 00:55:10;;;;;;;5.90;2.50;;;;;;;4.74;94.97;99555.71;105953;1253;60510;-76
2024/03/18 00:57:38;;;;;;;7.00;2.90;;;;;;;4.72;94.02;99557.21;106023;1257;73842;-75
2024/03/18 01:00:11;;;;;;;5.30;2.30;;;;;;;4.64;93.41;99558.14;106286;1253;69948;-75
2024/03/18 01:02:39;;;;;;;8.70;2.00;;;;;;;4.53;93.07;99560.33;106035;1257;72355;-78
2024/03/18 01:05:09;;;;;;;7.80;2.70;;;;;;;4.47;93.61;99559.41;106014;1254;60604;-76
2024/03/18 01:07:37;;;;;;;4.70;2.60;;;;;;;4.49;93.91;99555.05;106249;1257;60533;-74
2024/03/18 01:10:06;;;;;;;5.70;2.10;;;;;;;4.46;93.37;99552.30;105936;1253;72614;-76
2024/03/18 01:12:34;;;;;;;6.50;2.10;;;;;;;4.46;93.96;99550.00;106073;1257;72080;-75
2024/03/18 01:15:02;;;;;;;5.20;2.10;;;;;;;4.48;94.05;99550.20;105780;1254;71409;-75
2024/03/18 01:17:30;;;;;;;8.90;2.80;;;;;;;4.47;94.31;99554.66;107547;1255;60455;-75
2024/03/18 01:19:57;;;;;;;6.20;2.30;;;;;;;4.47;94.05;99549.23;105941;1253;61249;-76
2024/03/18 01:22:25;;;;;;;5.30;2.50;;;;;;;4.51;94.10;99550.85;106476;1253;74032;-77
2024/03/18 01:24:52;;;;;;;5.30;2.30;;;;;;;4.53;94.46;99547.52;106846;1256;68761;-74
2024/03/18 01:27:19;;;;;;;8.40;3.00;;;;;;;4.55;93.96;99545.08;106695;1253;73256;-74
2024/03/18 01:29:49;;;;;;;8.70;3.30;;;;;;;4.56;93.57;99542.71;106156;1257;62146;-76
2024/03/18 01:32:16;;;;;;;9.00;3.20;;;;;;;4.58;93.60;99542.94;106115;1253;60444;-77
2024/03/18 01:34:44;;;;;;;11.70;3.70;;;;;;;4.52;93.78;99541.77;105929;1254;73783;-75
2024/03/18 01:37:11;;;;;;;8.20;3.20;;;;;;;4.50;93.49;99543.70;105884;1253;70067;-75
2024/03/18 01:39:38;;;;;;;8.40;3.00;;;;;;;4.47;93.23;99542.21;105844;1253;73131;-76
2024/03/18 01:42:06;;;;;;;7.90;3.60;;;;;;;4.43;93.22;99546.27;106065;1254;60486;-74
2024/03/18 01:44:33;;;;;;;5.90;2.80;;;;;;;4.38;94.05;99542.14;106003;1253;60440;-77
2024/03/18 01:47:01;;;;;;;8.90;3.10;;;;;;;4.41;94.29;99540.98;105920;1257;73902;-76
2024/03/18 01:49:28;;;;;;;4.70;2.70;;;;;;;4.46;94.38;99540.20;106190;1259;69951;-78
2024/03/18 01:51:55;;;;;;;7.10;2.70;;;;;;;4.42;94.06;99541.82;106082;1254;72792;-78
2024/03/18 01:54:22;;;;;;;8.20;2.50;;;;;;;4.37;93.73;99537.52;105794;1258;60566;-77
2024/03/18 01:56:50;;;;;;;6.70;2.70;;;;;;;4.26;93.31;99532.98;105788;1259;60450;-77
2024/03/18 01:59:17;;;;;;;6.30;3.00;;;;;;;4.23;93.33;99531.34;105914;1254;74231;-77
2024/03/18 02:01:44;;;;;;;6.40;3.00;;;;;;;4.23;93.29;99531.89;105948;1256;70145;-79
2024/03/18 02:04:12;;;;;;;10.10;3.20;;;;;;;4.20;93.53;99531.13;106011;1253;71420;-77
2024/03/18 02:06:41;;;;;;;5.80;2.40;;;;;;;4.22;93.81;99531.80;106082;1257;60412;-71
2024/03/18 02:09:09;;;;;;;4.50;2.70;;;;;;;4.25;93.96;99533.64;106228;1258;59288;-75
2024/03/18 02:11:36;;;;;;;8.60;2.10;;;;;;;4.30;94.08;99533.91;106141;1257;71837;-74
2024/03/18 02:14:15;;;;;;;8.10;2.50;;;;;;;4.27;93.73;99530.95;105887;1256;70201;-75
2024/03/18 02:16:43;;;;;;;3.40;2.10;;;;;;;4.29;93.77;99533.09;106670;1253;72842;-75
2024/03/18 02:19:11;;;;;;;5.90;2.30;;;;;;;4.26;92.92;99529.87;106426;1259;60433;-74
2024/03/18 02:21:38;;;;;;;6.10;2.40;;;;;;;4.19;92.50;99531.69;105748;1259;60936;-74
2024/03/18 02:24:06;;;;;;;6.60;2.60;;;;;;;4.18;93.30;99528.11;105998;1256;72553;-76
2024/03/18 02:26:34;;;;;;;6.80;2.70;;;;;;;4.19;93.92;99525.61;105805;1253;69978;-75
2024/03/18 02:29:01;;;;;;;7.80;3.00;;;;;;;4.21;94.05;99525.02;105896;1254;72691;-75
2024/03/18 02:31:29;;;;;;;8.00;3.10;;;;;;;4.27;94.25;99524.48;105822;1259;61690;-73
2024/03/18 02:33:57;;;;;;;9.30;2.90;;;;;;;4.26;93.42;99524.13;105887;1256;60411;-74
2024/03/18 02:36:24;;;;;;;5.90;2.60;;;;;;;4.23;93.63;99520.66;105711;1253;73912;-74
2024/03/18 02:38:52;;;;;;;12.20;3.70;;;;;;;4.27;93.67;99523.23;105830;1257;67940;-73
2024/03/18 02:41:20;;;;;;;9.60;3.90;;;;;;;4.31;94.26;99519.42;105724;1253;71485;-74
2024/03/18 02:43:48;;;;;;;7.20;3.20;;;;;;;4.39;94.58;99517.13;105853;1257;60483;-74
2024/03/18 02:46:15;;;;;;;4.80;2.70;;;;;;;4.44;94.30;99521.83;105871;1253;60533;-72
2024/03/18 02:48:42;;;;;;;6.90;2.90;;;;;;;4.39;93.23;99525.95;105790;1253;73213;-71
2024/03/18 02:51:10;;;;;;;8.30;3.20;;;;;;;4.38;94.20;99524.11;105908;1253;70103;-76
2024/03/18 02:53:37;;;;;;;6.90;2.30;;;;;;;4.45;94.39;99521.60;105864;1258;72206;-73
2024/03/18 02:56:05;;;;;;;6.40;2.80;;;;;;;4.44;93.56;99519.05;105825;1256;62097;-75
2024/03/18 02:58:32;;;;;;;8.80;3.00;;;;;;;4.34;92.53;99522.99;105861;1253;60467;-76
2024/03/18 03:01:00;;;;;;;7.90;2.60;;;;;;;4.30;92.81;99522.29;105856;1254;73871;-76
2024/03/18 03:03:27;;;;;;;6.10;2.80;;;;;;;4.29;93.74;99516.25;105850;1257;69360;-74
2024/03/18 03:05:55;;;;;;;4.20;2.40;;;;;;;4.29;93.01;99519.40;105898;1256;73132;-74
2024/03/18 03:08:22;;;;;;;6.50;2.30;;;;;;;4.25;92.22;99522.44;106170;1254;60536;-73
2024/03/18 03:10:50;;;;;;;8.30;3.10;;;;;;;4.23;92.63;99523.84;106752;1253;60354;-72
2024/03/18 03:13:17;;;;;;;8.60;2.20;;;;;;;4.22;92.91;99522.36;106193;1253;73094;-73
2024/03/18 03:15:44;;;;;;;6.10;2.50;;;;;;;4.25;92.78;99517.52;106133;1253;70441;-71
2024/03/18 03:18:14;;;;;;;7.30;2.20;;;;;;;4.25;92.86;99512.95;106044;1260;71383;-72
2024/03/18 03:20:41;;;;;;;5.90;2.90;;;;;;;4.32;93.12;99512.33;105843;1259;61367;-72
2024/03/18 03:23:09;;;;;;;7.40;3.00;;;;;;;4.33;92.73;99508.35;105950;1257;60428;-73
2024/03/18 03:25:39;;;;;;;6.60;3.10;;;;;;;4.31;92.61;99511.89;105852;1257;73951;-74
2024/03/18 03:28:06;;;;;;;8.50;3.50;;;;;;;4.32;92.91;99511.79;105688;1253;69977;-73
2024/03/18 03:30:34;;;;;;;4.60;2.80;;;;;;;4.32;92.57;99506.58;105822;1254;72774;-75
2024/03/18 03:33:04;;;;;;;9.70;3.20;;;;;;;4.26;92.45;99507.98;105749;1253;61250;-74
2024/03/18 03:35:32;;;;;;;5.90;2.30;;;;;;;4.22;92.22;99509.16;105835;1256;61282;-74
2024/03/18 03:37:59;;;;;;;4.90;2.00;;;;;;;4.22;92.43;99506.73;105779;1253;73467;-74
2024/03/18 03:40:27;;;;;;;6.90;2.60;;;;;;;4.24;92.95;99508.84;105733;1259;68671;-75
2024/03/18 03:42:54;;;;;;;9.70;3.00;;;;;;;4.24;92.42;99507.42;105780;1254;72767;-73
2024/03/18 03:45:24;;;;;;;4.50;2.20;;;;;;;4.27;92.29;99506.64;105706;1253;61173;-73
2024/03/18 03:47:52;;;;;;;5.00;2.20;;;;;;;4.28;92.33;99506.17;105700;1254;61346;-71
2024/03/18 03:50:20;;;;;;;5.60;2.30;;;;;;;4.34;92.73;99506.05;105649;1253;74791;-73
2024/03/18 03:52:47;;;;;;;6.60;2.80;;;;;;;4.35;92.42;99507.49;105809;1254;69159;-74
2024/03/18 03:55:15;;;;;;;11.90;5.00;;;;;;;4.38;92.39;99509.71;105756;1253;71355;-73
2024/03/18 03:57:42;;;;;;;9.90;5.10;;;;;;;4.41;92.52;99510.55;105837;1253;61356;-74
2024/03/18 04:00:11;;;;;;;7.10;2.90;;;;;;;4.40;92.74;99510.41;105641;1260;61236;-74
2024/03/18 04:02:39;;;;;;;7.80;2.40;;;;;;;4.45;92.44;99503.02;106272;1253;74639;-74
2024/03/18 04:05:07;;;;;;;6.80;2.40;;;;;;;4.47;92.32;99503.95;106597;1253;68729;-72
2024/03/18 04:07:34;;;;;;;4.60;2.50;;;;;;;4.46;91.77;99506.77;106111;1260;71072;-72
2024/03/18 04:10:02;;;;;;;7.10;2.60;;;;;;;4.44;91.64;99505.00;105806;1253;61750;-74
2024/03/18 04:12:30;;;;;;;7.80;2.30;;;;;;;4.44;91.70;99503.42;105913;1253;61330;-73
2024/03/18 04:14:57;;;;;;;7.60;2.30;;;;;;;4.45;92.37;99501.92;105907;1256;74812;-74
2024/03/18 04:17:25;;;;;;;6.50;3.00;;;;;;;4.51;92.27;99499.59;105915;1253;69146;-74
2024/03/18 04:19:54;;;;;;;5.10;2.10;;;;;;;4.50;91.21;99498.29;105857;1253;73019;-72
2024/03/18 04:22:21;;;;;;;6.50;2.90;;;;;;;4.40;91.04;99501.30;105955;1254;61802;-73
2024/03/18 04:24:48;;;;;;;5.60;2.50;;;;;;;4.36;90.97;99503.61;105951;1253;61314;-74
2024/03/18 04:27:17;;;;;;;5.10;2.60;;;;;;;4.37;91.37;99505.42;105881;1253;73384;-75
2024/03/18 04:29:45;;;;;;;6.00;2.40;;;;;;;4.35;91.42;99509.79;105802;1258;68979;-75
2024/03/18 04:32:12;;;;;;;6.50;2.80;;;;;;;4.39;91.44;99511.19;105866;1253;72876;-73
2024/03/18 04:34:39;;;;;;;7.60;3.00;;;;;;;4.35;91.09;99513.30;105661;1259;61109;-72
2024/03/18 04:37:08;;;;;;;10.20;3.20;;;;;;;4.27;91.02;99514.02;105617;1253;61350;-73
2024/03/18 04:39:35;;;;;;;8.00;3.30;;;;;;;4.24;90.87;99516.06;105789;1260;73458;-75
2024/03/18 04:42:05;;;;;;;22.90;12.70;;;;;;;4.26;91.59;99514.30;105651;1253;69427;-75
2024/03/18 04:44:33;;;;;;;8.50;3.90;;;;;;;4.25;91.54;99518.39;105616;1256;72941;-73
2024/03/18 04:47:00;;;;;;;8.50;3.30;;;;;;;4.22;91.72;99520.04;105760;1259;61137;-75
2024/03/18 04:49:28;;;;;;;7.70;3.40;;;;;;;4.21;92.10;99518.77;105860;1253;61228;-74
2024/03/18 04:51:55;;;;;;;7.90;3.30;;;;;;;4.22;92.20;99517.27;105964;1254;73504;-74
2024/03/18 04:54:22;;;;;;;6.40;3.40;;;;;;;4.24;91.84;99523.52;105880;1253;70672;-74
2024/03/18 04:56:50;;;;;;;7.80;3.10;;;;;;;4.21;91.66;99524.19;106570;1254;71535;-76
2024/03/18 04:59:17;;;;;;;10.40;3.80;;;;;;;4.14;91.57;99522.48;107473;1253;61203;-76
2024/03/18 05:01:44;;;;;;;7.50;2.80;;;;;;;4.13;91.71;99525.19;106569;1253;61407;-74
2024/03/18 05:04:12;;;;;;;6.20;3.10;;;;;;;4.11;92.00;99524.27;106149;1255;73555;-76
2024/03/18 05:06:39;;;;;;;6.90;2.90;;;;;;;4.11;92.24;99528.67;105832;1253;70876;-76
2024/03/18 05:09:09;;;;;;;6.70;3.10;;;;;;;4.10;91.73;99524.76;105837;1258;73051;-76
2024/03/18 05:11:36;;;;;;;6.80;4.10;;;;;;;4.07;91.74;99526.80;105661;1256;61438;-74
2024/03/18 05:14:04;;;;;;;10.70;2.90;;;;;;;4.09;91.83;99529.36;105830;1259;61224;-74
2024/03/18 05:16:37;;;;;;;6.20;2.90;;;;;;;4.08;92.24;99528.25;105821;1257;72293;-74
2024/03/18 05:19:05;;;;;;;8.40;2.90;;;;;;;4.13;92.56;99532.58;105750;1257;70223;-73
2024/03/18 05:21:33;;;;;;;10.80;4.00;;;;;;;4.24;92.92;99535.45;105928;1260;71453;-74
2024/03/18 05:24:00;;;;;;;9.10;3.80;;;;;;;4.29;93.07;99535.58;105964;1258;61113;-76
2024/03/18 05:26:35;;;;;;;7.20;3.60;;;;;;;4.38;92.86;99536.56;105652;1261;61118;-75
2024/03/18 05:29:02;;;;;;;9.20;3.50;;;;;;;4.39;92.31;99537.35;105925;1253;74735;-77
2024/03/18 05:31:31;;;;;;;9.20;3.80;;;;;;;4.43;93.06;99533.69;106030;1259;68746;-77
2024/03/18 05:34:01;;;;;;;5.90;3.40;;;;;;;4.54;93.26;99533.43;106054;1258;71813;-76
2024/03/18 05:36:28;;;;;;;18.40;8.70;;;;;;;4.66;94.15;99536.02;105894;1255;61337;-76
2024/03/18 05:38:56;;;;;;;7.60;4.30;;;;;;;4.78;93.74;99536.56;105851;1253;61173;-75
2024/03/18 05:41:23;;;;;;;8.00;3.80;;;;;;;4.80;92.19;99538.29;105860;1253;74559;-74
2024/03/18 05:43:51;;;;;;;5.70;3.50;;;;;;;4.75;91.67;99535.26;105845;1260;70752;-77
2024/03/18 05:46:18;;;;;;;9.90;4.00;;;;;;;4.71;91.35;99542.39;105924;1259;71069;-74
2024/03/18 05:48:46;;;;;;;9.80;4.30;;;;;;;4.72;92.06;99543.34;105854;1258;61764;-77
2024/03/18 05:51:14;;;;;;;5.70;3.40;;;;;;;4.77;91.95;99542.08;107756;1253;62643;-75
2024/03/18 05:53:41;;;;;;;12.40;4.70;;;;;;;4.85;91.75;99539.10;107968;1254;76543;-76
2024/03/18 05:56:09;;;;;;;8.70;4.40;;;;;;;4.91;92.23;99541.93;106477;1254;69275;-76
2024/03/18 05:58:39;;;;;;;9.20;4.30;;;;;;;5.04;93.01;99542.66;105755;1261;71652;-75
2024/03/18 06:01:10;;;;;;;9.50;5.10;;;;;;;5.15;92.88;99545.41;105883;1260;61358;-76
2024/03/18 06:03:38;;;;;;;12.10;5.50;;;;;;;5.23;93.25;99542.52;106041;1253;61342;-76
2024/03/18 06:06:08;;;;;;;8.50;5.30;;;;;;;5.35;93.59;99539.01;105929;1258;74663;-78
2024/03/18 06:08:36;;;;;;;8.20;5.60;;;;;;;5.44;93.26;99540.45;105765;1259;70302;-75
2024/03/18 06:11:04;;;;;;;8.50;5.70;;;;;;;5.49;92.87;99533.67;105917;1253;74729;-78
2024/03/18 06:13:32;;;;;;;8.70;4.20;;;;;;;5.54;92.65;99532.90;105977;1253;61232;-75
2024/03/18 06:16:01;;;;;;;8.00;3.70;;;;;;;5.58;92.14;99533.92;106163;1254;61221;-77
2024/03/18 06:18:29;;;;;;;8.30;4.40;;;;;;;5.62;91.89;99530.74;106095;1258;74809;-77
2024/03/18 06:20:56;;;;;;;7.30;4.00;;;;;;;5.63;91.35;99533.63;106020;1254;69035;-75
2024/03/18 06:23:29;;;;;;;9.80;4.50;;;;;;;5.63;90.67;99534.32;106056;1259;72687;-75
2024/03/18 06:26:03;;;;;;;8.60;5.00;;;;;;;5.63;90.47;99533.64;105986;1253;62010;-75
2024/03/18 06:28:31;;;;;;;9.60;5.10;;;;;;;5.68;90.96;99533.17;106089;1253;61299;-76
2024/03/18 06:30:58;;;;;;;10.90;5.20;;;;;;;5.74;91.08;99530.55;105965;1253;75339;-77
2024/03/18 06:33:26;;;;;;;9.70;5.30;;;;;;;5.80;91.49;99531.37;106152;1257;70070;-74
2024/03/18 06:35:54;;;;;;;10.10;5.40;;;;;;;5.87;91.19;99527.66;106288;1253;75093;-75
2024/03/18 06:38:23;;;;;;;9.90;6.00;;;;;;;5.92;91.02;99528.52;106564;1253;62010;-75
2024/03/18 06:40:50;;;;;;;9.30;6.20;;;;;;;5.98;91.68;99526.94;106153;1252;61215;-77
2024/03/18 06:43:18;;;;;;;12.90;6.70;;;;;;;6.11;92.42;99525.51;106188;1256;76603;-77
2024/03/18 06:45:47;;;;;;;9.20;6.80;;;;;;;6.16;91.56;99525.58;107833;1253;70349;-76
2024/03/18 06:48:15;;;;;;;11.80;6.60;;;;;;;6.21;92.14;99518.81;107543;1256;71484;-75
2024/03/18 06:50:42;;;;;;;11.60;6.90;;;;;;;6.28;93.13;99521.67;106038;1255;61349;-74
2024/03/18 06:53:10;;;;;;;16.60;8.90;;;;;;;6.26;93.43;99523.52;106015;1253;61440;-75
2024/03/18 06:55:43;;;;;;;11.10;7.60;;;;;;;6.27;92.31;99525.56;106000;1257;76737;-74
2024/03/18 06:58:16;;;;;;;15.20;9.00;;;;;;;6.24;91.55;99520.56;105888;1257;70354;-73
2024/03/18 07:00:44;;;;;;;25.70;12.60;;;;;;;6.22;91.43;99520.27;105797;1254;71397;-73
2024/03/18 07:03:12;;;;;;;14.30;8.90;;;;;;;6.19;90.73;99518.45;105822;1257;61315;-75
2024/03/18 07:05:40;;;;;;;13.00;8.80;;;;;;;6.20;90.66;99516.02;105806;1253;61347;-76
2024/03/18 07:08:07;;;;;;;14.60;8.50;;;;;;;6.23;91.08;99518.23;105940;1256;76982;-77
2024/03/18 07:10:35;;;;;;;14.70;10.40;;;;;;;6.30;91.42;99521.99;105999;1257;69866;-76
2024/03/18 07:13:02;;;;;;;12.70;8.20;;;;;;;6.40;91.57;99524.77;105892;1254;72843;-75
2024/03/18 07:15:31;;;;;;;22.60;17.30;;;;;;;6.45;90.87;99517.72;106052;1252;63712;-76
2024/03/18 07:17:59;;;;;;;15.00;11.00;;;;;;;6.43;89.38;99517.73;105874;1254;61335;-75
2024/03/18 07:20:26;;;;;;;11.80;8.10;;;;;;;6.34;88.41;99521.84;105857;1253;73403;-72
2024/03/18 07:23:11;;;;;;;13.40;10.10;;;;;;;6.24;88.89;99520.08;105912;1260;70299;-74
2024/03/18 07:25:39;;;;;;;14.10;9.40;;;;;;;6.26;89.38;99524.52;106057;1257;72758;-75
2024/03/18 07:28:06;;;;;;;11.80;7.40;;;;;;;6.27;89.67;99525.75;105857;1257;62844;-73
2024/03/18 07:30:34;;;;;;;11.10;6.80;;;;;;;6.33;90.58;99525.02;105860;1256;62395;-74
2024/03/18 07:33:01;;;;;;;8.90;5.70;;;;;;;6.39;90.64;99522.36;106052;1254;74795;-75
2024/03/18 07:35:29;;;;;;;10.70;6.30;;;;;;;6.49;90.37;99520.34;105906;1259;70267;-74
2024/03/18 07:37:57;;;;;;;10.50;6.00;;;;;;;6.57;89.95;99513.09;106066;1254;73065;-74
2024/03/18 07:40:28;;;;;;;9.60;5.60;;;;;;;6.65;89.87;99512.77;106584;1257;64359;-74
2024/03/18 07:42:56;;;;;;;11.80;5.90;;;;;;;6.72;88.96;99512.38;106371;1253;61218;-75
2024/03/18 07:45:23;;;;;;;12.90;5.80;;;;;;;6.77;88.93;99516.73;106091;1253;75857;-75
2024/03/18 07:47:51;;;;;;;12.50;7.90;;;;;;;6.80;88.87;99517.38;105890;1253;72263;-73
2024/03/18 07:50:18;;;;;;;13.60;8.40;;;;;;;6.85;89.14;99516.11;105932;1256;75431;-75
2024/03/18 07:52:46;;;;;;;10.90;7.10;;;;;;;6.97;89.88;99511.52;105940;1259;61331;-75
2024/03/18 07:55:14;;;;;;;11.90;7.00;;;;;;;7.08;90.05;99514.84;105952;1257;61238;-75
2024/03/18 07:57:42;;;;;;;11.00;6.50;;;;;;;7.13;89.57;99511.88;105981;1259;75143;-75
2024/03/18 08:00:12;;;;;;;9.70;5.70;;;;;;;7.08;87.22;99514.48;105827;1253;70408;-75
2024/03/18 08:02:41;;;;;;;10.30;6.10;;;;;;;7.02;87.36;99517.33;105564;1263;73632;-75
2024/03/18 08:05:09;;;;;;;10.20;5.70;;;;;;;7.06;87.78;99513.74;105880;1252;62620;-75
2024/03/18 08:07:41;;;;;;;10.90;7.10;;;;;;;7.03;86.55;99511.20;105943;1257;62236;-79
2024/03/18 08:10:09;;;;;;;9.30;6.80;;;;;;;6.92;85.49;99509.11;106089;1254;74626;-77
2024/03/18 08:12:36;;;;;;;7.40;5.30;;;;;;;6.86;86.29;99508.83;106158;1256;71933;-79
2024/03/18 08:15:05;;;;;;;9.50;5.30;;;;;;;6.84;86.27;99504.28;106018;1254;74776;-77
2024/03/18 08:17:32;;;;;;;8.20;4.40;;;;;;;6.82;85.89;99503.97;106024;1257;62246;-78
2024/03/18 08:20:00;;;;;;;7.40;5.10;;;;;;;6.80;85.80;99503.06;105861;1259;61244;-77
2024/03/18 08:22:28;;;;;;;9.70;6.20;;;;;;;6.80;86.17;99499.75;106048;1259;76692;-79
2024/03/18 08:24:55;;;;;;;9.80;6.90;;;;;;;6.85;86.32;99505.80;106075;1256;69085;-78
2024/03/18 08:27:25;;;;;;;8.60;6.00;;;;;;;6.86;85.97;99505.13;106060;1256;74102;-79
2024/03/18 08:29:53;;;;;;;12.30;7.90;;;;;;;6.86;86.29;99501.16;106208;1260;61304;-80
2024/03/18 08:32:21;;;;;;;13.60;6.70;;;;;;;6.91;87.83;99502.92;106250;1260;62113;-81
2024/03/18 08:34:48;;;;;;;10.00;5.20;;;;;;;6.98;89.05;99506.30;108933;1253;76809;-80
2024/03/18 08:37:19;;;;;;;8.20;5.10;;;;;;;6.99;87.67;99504.61;108939;1251;71220;-82
2024/03/18 08:39:47;;;;;;;11.90;5.10;;;;;;;7.02;88.01;99501.81;106558;1259;72770;-79
2024/03/18 08:42:15;;;;;;;7.90;4.30;;;;;;;7.10;89.06;99502.48;106337;1255;61141;-78
2024/03/18 08:44:42;;;;;;;8.80;3.90;;;;;;;7.13;89.51;99501.94;106137;1257;61268;-76
2024/03/18 08:47:10;;;;;;;12.40;5.30;;;;;;;7.16;89.87;99498.00;106129;1259;74079;-77
2024/03/18 08:49:37;;;;;;;9.70;4.40;;;;;;;7.17;90.31;99504.39;106501;1257;73012;-78
2024/03/18 08:52:05;;;;;;;9.60;4.30;;;;;;;7.18;89.63;99501.52;106524;1260;73299;-79
2024/03/18 08:54:34;;;;;;;9.90;5.50;;;;;;;7.17;89.10;99505.41;106873;1254;61230;-79
2024/03/18 08:57:02;;;;;;;8.50;4.90;;;;;;;7.12;88.48;99507.89;106193;1259;61228;-78
2024/03/18 08:59:30;;;;;;;12.10;7.60;;;;;;;7.05;87.72;99504.68;105819;1254;76044;-78
2024/03/18 09:01:57;;;;;;;12.20;6.30;;;;;;;7.01;87.73;99504.61;106141;1261;69674;-79
2024/03/18 09:04:25;;;;;;;15.50;6.10;;;;;;;6.94;87.47;99504.17;106040;1256;73560;-78
2024/03/18 09:06:52;;;;;;;10.20;5.20;;;;;;;6.88;87.48;99500.56;105965;1260;62652;-80
2024/03/18 09:09:20;;;;;;;11.40;5.50;;;;;;;6.85;87.66;99503.11;106119;1257;61176;-78
2024/03/18 09:11:49;;;;;;;9.30;4.80;;;;;;;6.82;87.38;99503.27;105960;1257;76833;-78
2024/03/18 09:14:16;;;;;;;10.00;5.90;;;;;;;6.76;86.78;99503.14;106064;1251;72551;-77
2024/03/18 09:16:44;;;;;;;9.80;6.00;;;;;;;6.76;87.43;99503.66;105982;1252;74561;-78
2024/03/18 09:19:12;;;;;;;9.50;4.50;;;;;;;6.80;88.10;99506.48;106020;1259;61225;-79
2024/03/18 09:21:39;;;;;;;12.00;5.40;;;;;;;6.81;88.01;99504.59;106020;1252;61303;-79
2024/03/18 09:24:07;;;;;;;10.00;5.90;;;;;;;6.77;86.96;99500.08;105998;1260;75063;-77
2024/03/18 09:26:35;;;;;;;10.80;6.00;;;;;;;6.75;87.07;99499.95;106062;1254;72412;-77
2024/03/18 09:29:03;;;;;;;12.00;7.20;;;;;;;6.74;87.13;99497.95;106750;1256;74813;-77
2024/03/18 09:31:31;;;;;;;11.50;6.00;;;;;;;6.71;87.48;99501.20;107487;1254;63503;-77
2024/03/18 09:33:58;;;;;;;9.30;5.60;;;;;;;6.72;88.04;99495.08;107143;1260;59773;-77
2024/03/18 09:36:26;;;;;;;13.60;7.20;;;;;;;6.75;87.35;99494.81;105970;1267;77055;-75
2024/03/18 09:38:54;;;;;;;12.20;7.00;;;;;;;6.74;87.90;99493.86;106066;1257;70392;-76
2024/03/18 09:41:21;;;;;;;14.20;7.20;;;;;;;6.76;89.08;99489.94;106077;1264;72438;-76
2024/03/18 09:43:49;;;;;;;11.00;6.10;;;;;;;6.78;89.84;99492.38;106069;1256;62268;-78
2024/03/18 09:46:21;;;;;;;9.20;5.10;;;;;;;6.80;90.46;99489.36;106177;1257;62098;-77
2024/03/18 09:48:49;;;;;;;9.40;5.00;;;;;;;6.83;90.78;99490.45;106219;1259;75521;-75
2024/03/18 09:51:17;;;;;;;9.90;5.40;;;;;;;6.85;91.21;99486.76;105779;1260;72480;-76
2024/03/18 09:53:48;;;;;;;13.30;5.60;;;;;;;6.89;91.79;99487.83;106022;1260;72581;-75
2024/03/18 09:56:15;;;;;;;10.10;5.10;;;;;;;6.95;92.51;99485.11;106001;1257;61452;-77
2024/03/18 09:58:43;;;;;;;9.20;5.00;;;;;;;6.99;92.90;99481.67;106115;1267;62234;-76
2024/03/18 10:01:12;;;;;;;7.30;4.30;;;;;;;6.99;91.31;99478.55;105992;1253;75783;-76
2024/03/18 10:03:42;;;;;;;7.90;4.80;;;;;;;6.94;90.76;99476.12;105936;1254;71212;-76
2024/03/18 10:06:12;;;;;;;8.90;5.20;;;;;;;6.85;90.10;99477.95;106023;1253;73840;-76
2024/03/18 10:08:39;;;;;;;9.40;5.20;;;;;;;6.81;90.85;99476.92;105934;1254;61974;-76
2024/03/18 10:11:07;;;;;;;9.70;5.90;;;;;;;6.80;91.27;99478.30;105888;1254;61404;-76
2024/03/18 10:13:35;;;;;;;11.20;5.50;;;;;;;6.75;89.75;99471.39;105736;1252;76884;-77
2024/03/18 10:16:03;;;;;;;8.90;4.80;;;;;;;6.66;89.56;99472.23;105878;1257;71123;-76
2024/03/18 10:18:31;;;;;;;8.70;5.00;;;;;;;6.63;89.28;99469.08;105920;1257;74950;-77
2024/03/18 10:21:02;;;;;;;7.30;4.30;;;;;;;6.65;89.37;99474.11;105989;1257;61192;-77
2024/03/18 10:23:30;;;;;;;7.80;4.00;;;;;;;6.70;90.41;99471.20;105916;1259;61224;-77
2024/03/18 10:26:01;;;;;;;6.40;3.80;;;;;;;6.73;91.10;99465.92;106945;1254;72668;-77
2024/03/18 10:28:28;;;;;;;9.10;3.90;;;;;;;6.76;90.75;99462.88;106831;1259;70787;-75
2024/03/18 10:30:58;;;;;;;6.60;3.50;;;;;;;6.78;89.95;99464.98;106329;1253;73626;-73
2024/03/18 10:33:26;;;;;;;8.30;3.10;;;;;;;6.79;90.37;99464.10;106090;1260;61830;-77
2024/03/18 10:35:54;;;;;;;7.80;3.70;;;;;;;6.81;90.51;99462.15;105928;1253;61301;-73
2024/03/18 10:38:23;;;;;;;5.70;3.30;;;;;;;6.83;89.94;99457.54;105911;1254;73698;-75
2024/03/18 10:40:55;;;;;;;8.80;4.20;;;;;;;6.87;89.56;99456.07;106116;1254;71232;-74
2024/03/18 10:43:35;;;;;;;9.20;3.50;;;;;;;6.84;88.57;99451.80;105933;1254;70782;-77
2024/03/18 10:46:03;;;;;;;11.40;3.80;;;;;;;6.82;87.76;99449.96;105940;1259;61314;-78
2024/03/18 10:48:31;;;;;;;9.10;3.50;;;;;;;6.83;88.09;99448.10;105816;1254;62061;-75
2024/03/18 10:50:59;;;;;;;8.50;3.00;;;;;;;6.86;88.21;99447.38;105880;1260;75736;-74
2024/03/18 10:53:27;;;;;;;6.60;3.30;;;;;;;6.89;87.95;99443.96;105870;1254;71123;-72
2024/03/18 10:56:12;;;;;;;4.30;2.80;;;;;;;6.88;87.24;99441.05;105942;1257;73745;-72
2024/03/18 10:58:40;;;;;;;5.10;3.20;;;;;;;6.84;86.11;99438.42;105767;1255;63536;-75
2024/03/18 11:01:07;;;;;;;7.50;3.40;;;;;;;6.77;86.25;99439.79;106111;1255;61375;-75
2024/03/18 11:03:44;;;;;;;5.40;3.00;;;;;;;6.66;85.15;99442.48;106086;1263;75497;-75
2024/03/18 11:06:13;;;;;;;6.00;2.90;;;;;;;6.48;85.70;99443.20;106251;1254;70040;-79
2024/03/18 11:08:41;;;;;;;7.00;4.10;;;;;;;6.37;86.80;99443.24;105868;1254;70841;-74
2024/03/18 11:11:14;;;;;;;6.60;3.50;;;;;;;6.27;87.00;99443.80;105885;1253;61845;-78
2024/03/18 11:13:42;;;;;;;8.30;3.70;;;;;;;6.20;87.81;99443.42;105918;1259;61218;-76
2024/03/18 11:16:11;;;;;;;6.40;4.20;;;;;;;6.20;88.59;99438.53;105977;1254;76761;-75
2024/03/18 11:18:43;;;;;;;7.70;3.40;;;;;;;6.23;87.99;99433.50;105914;1254;72638;-76
2024/03/18 11:21:18;;;;;;;7.20;4.30;;;;;;;6.17;87.32;99433.02;106839;1259;71484;-75
2024/03/18 11:24:00;;;;;;;7.30;4.30;;;;;;;6.14;88.71;99433.30;107278;1254;61048;-75
2024/03/18 11:26:28;;;;;;;7.90;4.10;;;;;;;6.12;89.84;99430.80;107044;1253;59798;-76
2024/03/18 11:29:04;;;;;;;7.10;3.80;;;;;;;6.05;89.94;99425.67;105897;1260;74400;-76
2024/03/18 11:31:36;;;;;;;7.90;4.50;;;;;;;6.00;90.86;99424.89;106214;1256;69149;-76
2024/03/18 11:34:07;;;;;;;8.20;5.00;;;;;;;5.98;91.41;99423.20;106093;1254;74866;-77
2024/03/18 11:36:41;;;;;;;8.90;4.30;;;;;;;5.96;91.42;99421.12;105820;1254;234332;-78